This is the latest recevied weather packets stored in our database for station/object DL4MGC-10. If no packets are shown the sender has not sent any weather packets the latest 10 day(s).
| Time | Temp. | Humidity | Pressure | Rain* | Wind** | Luminosity | Snow |
|---|---|---|---|---|---|---|---|
| 1788592359 | 16.67° C | 95% | 1021.7 hPa | - | - | - | - |
| 1788591459 | 17.22° C | 94% | 1021.6 hPa | - | - | - | - |
| 1788590559 | 16.67° C | 97% | 1021.3 hPa | - | - | - | - |
| 1788589659 | 16.67° C | 97% | 1021.2 hPa | - | - | - | - |
| 1788588759 | 17.78° C | 94% | 1021.6 hPa | - | - | - | - |
| 1788587859 | 17.78° C | 94% | 1021.4 hPa | - | - | - | - |
| 1788586959 | 17.22° C | 90% | 1021.1 hPa | - | - | - | - |
| 1788586059 | 18.33° C | 90% | 1021 hPa | - | - | - | - |
| 1788585159 | 17.78° C | 86% | 1021.1 hPa | - | - | - | - |
| 1788584258 | 19.44° C | 77% | 1020.6 hPa | - | - | - | - |
| 1788583358 | 19.44° C | 73% | 1020.9 hPa | - | - | - | - |
| 1788582458 | 19.44° C | 72% | 1020.5 hPa | - | - | - | - |
| 1788581558 | 21.11° C | 65% | 1020.5 hPa | - | - | - | - |
| 1788580658 | 20° C | 67% | 1020.4 hPa | - | - | - | - |
| 1788579758 | 21.11° C | 63% | 1020.1 hPa | - | - | - | - |
| 1788578858 | 21.67° C | 63% | 1019.9 hPa | - | - | - | - |
| 1788577958 | 22.22° C | 66% | 1019.5 hPa | - | - | - | - |
| 1788577058 | 22.22° C | 67% | 1019.2 hPa | - | - | - | - |
| 1788576158 | 22.22° C | 70% | 1018.7 hPa | - | - | - | - |
| 1788575257 | 22.78° C | 70% | 1018.6 hPa | - | - | - | - |
| 1788574357 | 22.78° C | 69% | 1018.4 hPa | - | - | - | - |
| 1788573457 | 22.78° C | 70% | 1018.3 hPa | - | - | - | - |
| 1788572557 | 23.33° C | 70% | 1018.1 hPa | - | - | - | - |
| 1788571657 | 23.33° C | 71% | 1017.9 hPa | - | - | - | - |
| 1788570757 | 23.33° C | 71% | 1017.3 hPa | - | - | - | - |
* Rain since midnight (hover to see other rain measurements)
** Current wind speed in m/s (hover to see current wind gust speed)